Decoded Metar for PAHP (HOOPER BAY in AK, USA) (IATA:HPB) | Meteo·Mobile Aviation Weather
aviador You're here:

PAHP Decoded Metar

HOOPER BAY in AK, USA
Report Time2018-12-14 06:56:00
UTC Time2018-12-14 07:32:34
Flight Rules vfr VFR
Wind090° at 09 kt
W.Decomp.*RWY 13: 5.4 kt HW 7.2 kt LCW
W.Rank090° ranks 7
Current wind is below 090° avg. (11.4)
Visibility9999 m
Phenomena:Light Snow
Clouds:Overcast 050 Hf
Expected CloudBase > 800 ft AGL from Temp-Dew spread
Ceiling5,000 ft
Temp-15°C (ISA -30)
Dew Point-17°C (85% RH)
AAT-21.7°C
QNH994 hPa
Density Alt-3,094 ft
Elevation16 ft
Report Wrong Elevation
Raw Report
PAHP 140656Z AUTO 09009KT 9SM -SN OVC050 M15/M17 A2936 RMK AO2
SLP979 P0000 T11501167 FZRANO=

Extra information for PAHP:More info

Metar Taf Metar & Taf Last 4 Metars F.Rules Stats Wind Profile Meteogram Temp Stats Airport Information Weather charts Add Link Nearby VenuesMetar ALERT Operation Metar Decoded Social comments

AIRNAV info for PAHP